Terminal Aerodrome Forecast
Issued by NWS Caribou, ME

Home | Current Version | Previous Version | Text Only | Print | Product List | Glossary On
Versions: 1 2 3 4 5 6 7 8 9 10 11 12
313
FTUS41 KCAR 012320
TAFCAR
TAF
KCAR 012320Z 0200/0224 09005KT P6SM BKN090 OVC150
     FM020500 15004KT P6SM VCSH OVC040
     FM021500 15007KT 5SM -RA BR OVC025
     FM022000 15008KT P6SM -SHRA OVC020=

USA.gov is the U.S. government's official web portal to all federal, state and local government web resources and services.